sensor_id;sensor_type;location;lat;lon;timestamp;pressure;altitude;pressure_sealevel;temperature;humidity
55289;BME280;41154;45.394;5.734;2022-09-21T00:00:53;97392.97;;;8.81;100.00
55289;BME280;41154;45.394;5.734;2022-09-21T00:03:19;97383.91;;;8.52;100.00
55289;BME280;41154;45.394;5.734;2022-09-21T00:05:45;97384.88;;;8.57;100.00
55289;BME280;41154;45.394;5.734;2022-09-21T00:08:12;97391.88;;;8.70;100.00
55289;BME280;41154;45.394;5.734;2022-09-21T00:10:39;97397.00;;;8.72;100.00
55289;BME280;41154;45.394;5.734;2022-09-21T00:13:05;97393.06;;;8.74;100.00
55289;BME280;41154;45.394;5.734;2022-09-21T00:15:33;97386.44;;;8.77;100.00
55289;BME280;41154;45.394;5.734;2022-09-21T00:17:59;97374.81;;;8.83;100.00
55289;BME280;41154;45.394;5.734;2022-09-21T00:20:26;97383.31;;;8.80;100.00
55289;BME280;41154;45.394;5.734;2022-09-21T00:22:52;97383.69;;;8.95;100.00
55289;BME280;41154;45.394;5.734;2022-09-21T00:25:19;97379.25;;;8.77;100.00
55289;BME280;41154;45.394;5.734;2022-09-21T00:27:45;97375.56;;;8.60;100.00
55289;BME280;41154;45.394;5.734;2022-09-21T00:30:18;97382.56;;;8.61;100.00
55289;BME280;41154;45.394;5.734;2022-09-21T00:32:44;97366.22;;;8.20;100.00
55289;BME280;41154;45.394;5.734;2022-09-21T00:35:10;97369.66;;;8.09;100.00
55289;BME280;41154;45.394;5.734;2022-09-21T00:37:35;97369.88;;;8.56;100.00
55289;BME280;41154;45.394;5.734;2022-09-21T00:40:02;97378.25;;;9.38;100.00
55289;BME280;41154;45.394;5.734;2022-09-21T00:42:31;97371.94;;;9.67;100.00
55289;BME280;41154;45.394;5.734;2022-09-21T00:44:57;97374.75;;;9.61;100.00
55289;BME280;41154;45.394;5.734;2022-09-21T00:47:38;97368.81;;;9.47;100.00
55289;BME280;41154;45.394;5.734;2022-09-21T00:50:14;97367.53;;;9.73;100.00
55289;BME280;41154;45.394;5.734;2022-09-21T00:52:50;97365.41;;;9.75;100.00
55289;BME280;41154;45.394;5.734;2022-09-21T00:55:39;97362.94;;;9.97;100.00
55289;BME280;41154;45.394;5.734;2022-09-21T00:58:12;97364.13;;;9.78;100.00
55289;BME280;41154;45.394;5.734;2022-09-21T01:00:41;97357.84;;;9.72;100.00
55289;BME280;41154;45.394;5.734;2022-09-21T01:03:08;97365.97;;;9.89;100.00
55289;BME280;41154;45.394;5.734;2022-09-21T01:05:35;97359.50;;;9.38;100.00
55289;BME280;41154;45.394;5.734;2022-09-21T01:08:03;97360.34;;;9.26;100.00
55289;BME280;41154;45.394;5.734;2022-09-21T01:10:40;97364.97;;;8.95;100.00
55289;BME280;41154;45.394;5.734;2022-09-21T01:18:59;97347.84;;;8.73;100.00
55289;BME280;41154;45.394;5.734;2022-09-21T01:21:39;97347.09;;;8.66;100.00
55289;BME280;41154;45.394;5.734;2022-09-21T01:24:31;97343.53;;;8.72;100.00
55289;BME280;41154;45.394;5.734;2022-09-21T01:30:01;97350.38;;;8.37;100.00
55289;BME280;41154;45.394;5.734;2022-09-21T01:32:34;97346.38;;;8.47;100.00
55289;BME280;41154;45.394;5.734;2022-09-21T01:37:43;97356.28;;;8.27;100.00
55289;BME280;41154;45.394;5.734;2022-09-21T01:40:32;97350.72;;;8.10;100.00
55289;BME280;41154;45.394;5.734;2022-09-21T01:43:00;97348.72;;;8.06;100.00
55289;BME280;41154;45.394;5.734;2022-09-21T01:45:34;97340.09;;;8.04;100.00
55289;BME280;41154;45.394;5.734;2022-09-21T01:48:02;97346.53;;;7.84;100.00
55289;BME280;41154;45.394;5.734;2022-09-21T01:50:39;97353.00;;;8.07;100.00
55289;BME280;41154;45.394;5.734;2022-09-21T01:53:10;97354.97;;;8.00;100.00
55289;BME280;41154;45.394;5.734;2022-09-21T01:58:49;97347.09;;;8.05;100.00
55289;BME280;41154;45.394;5.734;2022-09-21T02:01:19;97348.13;;;8.04;100.00
55289;BME280;41154;45.394;5.734;2022-09-21T02:04:10;97338.34;;;7.98;100.00
55289;BME280;41154;45.394;5.734;2022-09-21T02:06:39;97342.50;;;7.94;100.00
55289;BME280;41154;45.394;5.734;2022-09-21T02:09:07;97346.19;;;8.11;100.00
55289;BME280;41154;45.394;5.734;2022-09-21T02:11:34;97337.16;;;8.12;100.00
55289;BME280;41154;45.394;5.734;2022-09-21T02:14:12;97339.31;;;8.03;100.00
55289;BME280;41154;45.394;5.734;2022-09-21T02:16:47;97334.50;;;7.75;100.00
55289;BME280;41154;45.394;5.734;2022-09-21T02:19:43;97334.06;;;7.60;100.00
55289;BME280;41154;45.394;5.734;2022-09-21T02:22:32;97337.53;;;7.60;100.00
55289;BME280;41154;45.394;5.734;2022-09-21T02:25:12;97343.94;;;7.59;100.00
55289;BME280;41154;45.394;5.734;2022-09-21T02:27:53;97339.03;;;7.56;100.00
55289;BME280;41154;45.394;5.734;2022-09-21T02:30:22;97332.16;;;7.48;100.00
55289;BME280;41154;45.394;5.734;2022-09-21T02:40:35;97323.69;;;7.33;100.00
55289;BME280;41154;45.394;5.734;2022-09-21T02:43:14;97315.22;;;7.17;100.00
55289;BME280;41154;45.394;5.734;2022-09-21T02:45:50;97318.34;;;7.33;100.00
55289;BME280;41154;45.394;5.734;2022-09-21T02:48:32;97310.38;;;7.08;100.00
55289;BME280;41154;45.394;5.734;2022-09-21T02:51:04;97314.09;;;7.07;100.00
55289;BME280;41154;45.394;5.734;2022-09-21T02:53:34;97309.72;;;6.87;100.00
55289;BME280;41154;45.394;5.734;2022-09-21T02:56:02;97308.13;;;6.86;100.00
55289;BME280;41154;45.394;5.734;2022-09-21T02:58:36;97308.13;;;6.86;100.00
55289;BME280;41154;45.394;5.734;2022-09-21T03:01:05;97306.19;;;7.18;100.00
55289;BME280;41154;45.394;5.734;2022-09-21T03:03:32;97313.22;;;7.31;100.00
55289;BME280;41154;45.394;5.734;2022-09-21T03:05:58;97319.66;;;7.24;100.00
55289;BME280;41154;45.394;5.734;2022-09-21T03:08:24;97311.13;;;7.15;100.00
55289;BME280;41154;45.394;5.734;2022-09-21T03:10:50;97317.41;;;7.02;100.00
55289;BME280;41154;45.394;5.734;2022-09-21T03:13:16;97324.31;;;7.10;100.00
55289;BME280;41154;45.394;5.734;2022-09-21T03:15:43;97318.53;;;7.13;100.00
55289;BME280;41154;45.394;5.734;2022-09-21T03:18:10;97306.59;;;6.97;100.00
55289;BME280;41154;45.394;5.734;2022-09-21T03:20:37;97315.03;;;6.94;100.00
55289;BME280;41154;45.394;5.734;2022-09-21T03:23:04;97314.19;;;6.93;100.00
55289;BME280;41154;45.394;5.734;2022-09-21T03:25:30;97320.56;;;6.92;100.00
55289;BME280;41154;45.394;5.734;2022-09-21T03:27:56;97311.88;;;6.78;100.00
55289;BME280;41154;45.394;5.734;2022-09-21T03:30:24;97319.53;;;6.68;100.00
55289;BME280;41154;45.394;5.734;2022-09-21T03:32:51;97313.50;;;6.79;100.00
55289;BME280;41154;45.394;5.734;2022-09-21T03:35:21;97308.41;;;6.78;100.00
55289;BME280;41154;45.394;5.734;2022-09-21T03:37:48;97311.22;;;6.83;100.00
55289;BME280;41154;45.394;5.734;2022-09-21T03:40:15;97312.03;;;6.83;100.00
55289;BME280;41154;45.394;5.734;2022-09-21T03:42:41;97314.91;;;6.82;100.00
55289;BME280;41154;45.394;5.734;2022-09-21T03:45:08;97321.00;;;6.64;100.00
55289;BME280;41154;45.394;5.734;2022-09-21T03:47:35;97315.56;;;6.52;100.00
55289;BME280;41154;45.394;5.734;2022-09-21T03:50:01;97322.38;;;6.41;100.00
55289;BME280;41154;45.394;5.734;2022-09-21T03:52:27;97330.59;;;6.40;100.00
55289;BME280;41154;45.394;5.734;2022-09-21T03:54:53;97332.25;;;6.41;100.00
55289;BME280;41154;45.394;5.734;2022-09-21T03:57:20;97323.84;;;6.37;100.00
55289;BME280;41154;45.394;5.734;2022-09-21T03:59:46;97325.47;;;6.38;100.00
55289;BME280;41154;45.394;5.734;2022-09-21T04:02:11;97324.22;;;6.09;100.00
55289;BME280;41154;45.394;5.734;2022-09-21T04:04:37;97330.53;;;6.53;100.00
55289;BME280;41154;45.394;5.734;2022-09-21T04:07:03;97333.63;;;6.43;100.00
55289;BME280;41154;45.394;5.734;2022-09-21T04:09:29;97333.75;;;6.30;100.00
55289;BME280;41154;45.394;5.734;2022-09-21T04:11:54;97333.25;;;6.40;100.00
55289;BME280;41154;45.394;5.734;2022-09-21T04:14:20;97324.69;;;6.38;100.00
55289;BME280;41154;45.394;5.734;2022-09-21T04:16:47;97336.84;;;6.27;100.00
55289;BME280;41154;45.394;5.734;2022-09-21T04:19:15;97331.34;;;6.22;100.00
55289;BME280;41154;45.394;5.734;2022-09-21T04:21:41;97330.28;;;6.23;100.00
55289;BME280;41154;45.394;5.734;2022-09-21T04:24:06;97327.06;;;6.14;100.00
55289;BME280;41154;45.394;5.734;2022-09-21T04:26:34;97335.56;;;6.36;100.00
55289;BME280;41154;45.394;5.734;2022-09-21T04:29:00;97333.34;;;6.26;100.00
55289;BME280;41154;45.394;5.734;2022-09-21T04:31:26;97334.38;;;6.25;100.00
55289;BME280;41154;45.394;5.734;2022-09-21T04:33:54;97332.66;;;6.38;100.00
55289;BME280;41154;45.394;5.734;2022-09-21T04:36:22;97342.69;;;6.36;100.00
55289;BME280;41154;45.394;5.734;2022-09-21T04:38:48;97337.41;;;5.84;100.00
55289;BME280;41154;45.394;5.734;2022-09-21T04:41:14;97339.41;;;5.95;100.00
55289;BME280;41154;45.394;5.734;2022-09-21T04:43:41;97341.47;;;6.06;100.00
55289;BME280;41154;45.394;5.734;2022-09-21T04:46:11;97337.78;;;6.01;100.00
55289;BME280;41154;45.394;5.734;2022-09-21T04:48:38;97339.63;;;6.00;100.00
55289;BME280;41154;45.394;5.734;2022-09-21T04:51:04;97348.44;;;6.01;100.00
55289;BME280;41154;45.394;5.734;2022-09-21T04:53:35;97337.16;;;6.05;100.00
55289;BME280;41154;45.394;5.734;2022-09-21T04:56:02;97347.41;;;6.02;100.00
55289;BME280;41154;45.394;5.734;2022-09-21T04:58:29;97343.47;;;6.11;100.00
55289;BME280;41154;45.394;5.734;2022-09-21T05:00:55;97344.28;;;6.11;100.00
55289;BME280;41154;45.394;5.734;2022-09-21T05:03:22;97347.63;;;6.00;100.00
55289;BME280;41154;45.394;5.734;2022-09-21T05:05:52;97348.75;;;6.18;100.00
55289;BME280;41154;45.394;5.734;2022-09-21T05:08:19;97357.00;;;6.09;100.00
55289;BME280;41154;45.394;5.734;2022-09-21T05:11:05;97353.97;;;5.99;100.00
55289;BME280;41154;45.394;5.734;2022-09-21T05:13:30;97362.41;;;5.83;100.00
55289;BME280;41154;45.394;5.734;2022-09-21T05:15:56;97358.25;;;5.93;100.00
55289;BME280;41154;45.394;5.734;2022-09-21T05:18:22;97362.28;;;6.16;100.00
55289;BME280;41154;45.394;5.734;2022-09-21T05:20:55;97354.72;;;6.13;100.00
55289;BME280;41154;45.394;5.734;2022-09-21T05:23:24;97361.38;;;5.97;100.00
55289;BME280;41154;45.394;5.734;2022-09-21T05:25:50;97367.28;;;5.92;100.00
55289;BME280;41154;45.394;5.734;2022-09-21T05:28:17;97355.81;;;5.92;100.00
55289;BME280;41154;45.394;5.734;2022-09-21T05:31:15;97370.97;;;5.91;100.00
55289;BME280;41154;45.394;5.734;2022-09-21T05:39:17;97361.00;;;5.80;100.00
55289;BME280;41154;45.394;5.734;2022-09-21T05:41:43;97368.09;;;5.93;100.00
55289;BME280;41154;45.394;5.734;2022-09-21T05:44:12;97374.25;;;6.00;100.00
55289;BME280;41154;45.394;5.734;2022-09-21T05:47:01;97376.28;;;5.91;100.00
55289;BME280;41154;45.394;5.734;2022-09-21T05:49:53;97374.44;;;5.92;100.00
55289;BME280;41154;45.394;5.734;2022-09-21T05:55:08;97369.34;;;5.97;100.00
55289;BME280;41154;45.394;5.734;2022-09-21T05:57:50;97370.78;;;5.86;100.00
55289;BME280;41154;45.394;5.734;2022-09-21T06:00:21;97374.88;;;5.89;100.00
55289;BME280;41154;45.394;5.734;2022-09-21T06:03:02;97373.84;;;5.90;100.00
55289;BME280;41154;45.394;5.734;2022-09-21T06:05:29;97371.22;;;5.83;100.00
55289;BME280;41154;45.394;5.734;2022-09-21T06:07:55;97373.91;;;5.76;100.00
55289;BME280;41154;45.394;5.734;2022-09-21T06:10:21;97385.09;;;5.92;100.00
55289;BME280;41154;45.394;5.734;2022-09-21T06:12:48;97387.53;;;5.93;100.00
55289;BME280;41154;45.394;5.734;2022-09-21T06:15:17;97385.03;;;6.19;100.00
55289;BME280;41154;45.394;5.734;2022-09-21T06:17:42;97384.00;;;6.20;100.00
55289;BME280;41154;45.394;5.734;2022-09-21T06:20:08;97385.09;;;6.05;100.00
55289;BME280;41154;45.394;5.734;2022-09-21T06:22:34;97381.53;;;6.18;100.00
55289;BME280;41154;45.394;5.734;2022-09-21T06:25:00;97377.09;;;6.05;100.00
55289;BME280;41154;45.394;5.734;2022-09-21T06:27:29;97384.69;;;5.88;100.00
55289;BME280;41154;45.394;5.734;2022-09-21T06:29:55;97385.09;;;6.05;100.00
55289;BME280;41154;45.394;5.734;2022-09-21T06:32:21;97384.91;;;6.00;100.00
55289;BME280;41154;45.394;5.734;2022-09-21T06:34:46;97392.88;;;6.07;100.00
55289;BME280;41154;45.394;5.734;2022-09-21T06:37:12;97391.00;;;6.07;100.00
55289;BME280;41154;45.394;5.734;2022-09-21T06:39:38;97393.06;;;5.92;100.00
55289;BME280;41154;45.394;5.734;2022-09-21T06:42:03;97387.81;;;5.79;100.00
55289;BME280;41154;45.394;5.734;2022-09-21T06:44:29;97384.06;;;5.93;100.00
55289;BME280;41154;45.394;5.734;2022-09-21T06:46:55;97384.28;;;6.05;100.00
55289;BME280;41154;45.394;5.734;2022-09-21T06:49:21;97387.34;;;6.02;100.00
55289;BME280;41154;45.394;5.734;2022-09-21T06:51:47;97389.41;;;6.06;100.00
55289;BME280;41154;45.394;5.734;2022-09-21T06:54:13;97395.06;;;6.23;100.00
55289;BME280;41154;45.394;5.734;2022-09-21T06:56:38;97389.53;;;6.18;100.00
55289;BME280;41154;45.394;5.734;2022-09-21T06:59:06;97396.25;;;6.27;100.00
55289;BME280;41154;45.394;5.734;2022-09-21T07:01:32;97393.94;;;6.38;100.00
55289;BME280;41154;45.394;5.734;2022-09-21T07:03:58;97392.09;;;6.38;100.00
55289;BME280;41154;45.394;5.734;2022-09-21T07:06:24;97385.50;;;7.05;100.00
55289;BME280;41154;45.394;5.734;2022-09-21T07:08:52;97381.28;;;10.58;100.00
55289;BME280;41154;45.394;5.734;2022-09-21T07:11:18;97378.41;;;13.37;100.00
55289;BME280;41154;45.394;5.734;2022-09-21T07:13:45;97369.66;;;15.19;85.58
55289;BME280;41154;45.394;5.734;2022-09-21T07:16:11;97368.75;;;15.80;82.05
55289;BME280;41154;45.394;5.734;2022-09-21T07:18:39;97368.66;;;17.11;75.95
55289;BME280;41154;45.394;5.734;2022-09-21T07:21:06;97376.00;;;16.61;76.87
55289;BME280;41154;45.394;5.734;2022-09-21T07:23:33;97366.91;;;18.32;70.87
55289;BME280;41154;45.394;5.734;2022-09-21T07:26:08;97365.84;;;17.21;75.17
55289;BME280;41154;45.394;5.734;2022-09-21T07:28:37;97372.28;;;17.89;69.25
55289;BME280;41154;45.394;5.734;2022-09-21T07:33:33;97366.75;;;18.62;67.71
55289;BME280;41154;45.394;5.734;2022-09-21T07:36:00;97362.94;;;19.20;67.69
55289;BME280;41154;45.394;5.734;2022-09-21T07:38:29;97369.63;;;18.32;68.86
55289;BME280;41154;45.394;5.734;2022-09-21T07:40:55;97374.66;;;19.01;64.15
55289;BME280;41154;45.394;5.734;2022-09-21T07:43:21;97370.59;;;18.80;69.29
55289;BME280;41154;45.394;5.734;2022-09-21T07:45:54;97359.09;;;19.68;67.72
55289;BME280;41154;45.394;5.734;2022-09-21T07:48:22;97359.56;;;20.44;63.27
55289;BME280;41154;45.394;5.734;2022-09-21T07:50:49;97359.97;;;21.33;59.44
55289;BME280;41154;45.394;5.734;2022-09-21T07:53:15;97358.72;;;22.51;53.47
55289;BME280;41154;45.394;5.734;2022-09-21T07:55:42;97357.53;;;21.86;52.17
55289;BME280;41154;45.394;5.734;2022-09-21T07:58:09;97364.88;;;19.33;59.75
55289;BME280;41154;45.394;5.734;2022-09-21T08:00:53;97359.34;;;19.71;60.22
55289;BME280;41154;45.394;5.734;2022-09-21T08:03:19;97361.25;;;20.91;57.20
55289;BME280;41154;45.394;5.734;2022-09-21T08:05:45;97366.44;;;20.78;56.98
55289;BME280;41154;45.394;5.734;2022-09-21T08:08:11;97363.63;;;21.83;52.84
55289;BME280;41154;45.394;5.734;2022-09-21T08:10:37;97362.09;;;21.99;52.82
55289;BME280;41154;45.394;5.734;2022-09-21T08:13:04;97364.50;;;21.15;54.57
55289;BME280;41154;45.394;5.734;2022-09-21T08:15:30;97360.53;;;22.91;49.45
55289;BME280;41154;45.394;5.734;2022-09-21T08:17:56;97361.59;;;21.57;52.76
55289;BME280;41154;45.394;5.734;2022-09-21T08:20:23;97362.94;;;22.66;49.31
55289;BME280;41154;45.394;5.734;2022-09-21T08:22:49;97359.97;;;23.59;49.05
55289;BME280;41154;45.394;5.734;2022-09-21T08:25:17;97360.06;;;23.24;47.91
55289;BME280;41154;45.394;5.734;2022-09-21T08:27:43;97352.16;;;21.72;53.16
55289;BME280;41154;45.394;5.734;2022-09-21T08:30:09;97357.34;;;20.05;55.65
55289;BME280;41154;45.394;5.734;2022-09-21T08:32:39;97350.81;;;21.83;52.25
55289;BME280;41154;45.394;5.734;2022-09-21T08:35:06;97345.53;;;21.10;53.64
55289;BME280;41154;45.394;5.734;2022-09-21T08:37:32;97357.63;;;22.52;50.49
55289;BME280;41154;45.394;5.734;2022-09-21T08:40:02;97354.84;;;22.35;53.43
55289;BME280;41154;45.394;5.734;2022-09-21T08:42:32;97358.56;;;20.26;55.10
55289;BME280;41154;45.394;5.734;2022-09-21T08:45:03;97357.44;;;20.41;55.48
55289;BME280;41154;45.394;5.734;2022-09-21T08:47:36;97359.81;;;20.57;54.40
55289;BME280;41154;45.394;5.734;2022-09-21T08:50:05;97353.59;;;21.38;51.74
55289;BME280;41154;45.394;5.734;2022-09-21T08:52:37;97352.59;;;20.89;53.68
55289;BME280;41154;45.394;5.734;2022-09-21T08:55:12;97349.09;;;21.65;54.66
55289;BME280;41154;45.394;5.734;2022-09-21T08:57:41;97352.59;;;20.89;56.98
55289;BME280;41154;45.394;5.734;2022-09-21T09:00:15;97347.50;;;22.79;50.79
55289;BME280;41154;45.394;5.734;2022-09-21T09:05:39;97355.69;;;18.15;70.94
55289;BME280;41154;45.394;5.734;2022-09-21T09:08:35;97346.66;;;18.01;71.82
55289;BME280;41154;45.394;5.734;2022-09-21T09:11:26;97347.31;;;16.99;68.15
55289;BME280;41154;45.394;5.734;2022-09-21T09:16:25;97351.00;;;16.74;70.17
55289;BME280;41154;45.394;5.734;2022-09-21T09:18:58;97332.16;;;17.57;68.24
55289;BME280;41154;45.394;5.734;2022-09-21T09:21:38;97349.38;;;16.78;71.70
55289;BME280;41154;45.394;5.734;2022-09-21T09:26:44;97338.03;;;17.40;68.65
55289;BME280;41154;45.394;5.734;2022-09-21T09:31:59;97333.09;;;17.47;72.24
55289;BME280;41154;45.394;5.734;2022-09-21T09:34:32;97335.31;;;17.40;73.77
55289;BME280;41154;45.394;5.734;2022-09-21T09:37:11;97330.13;;;17.97;69.08
55289;BME280;41154;45.394;5.734;2022-09-21T09:39:38;97328.56;;;17.08;70.59
55289;BME280;41154;45.394;5.734;2022-09-21T09:45:37;97329.81;;;17.50;72.86
55289;BME280;41154;45.394;5.734;2022-09-21T09:48:12;97328.50;;;17.72;70.11
55289;BME280;41154;45.394;5.734;2022-09-21T09:50:42;97331.88;;;17.34;71.80
55289;BME280;41154;45.394;5.734;2022-09-21T09:53:19;97325.81;;;17.42;79.55
55289;BME280;41154;45.394;5.734;2022-09-21T09:55:54;97326.44;;;17.05;73.95
55289;BME280;41154;45.394;5.734;2022-09-21T09:58:27;97325.03;;;16.68;72.26
55289;BME280;41154;45.394;5.734;2022-09-21T10:00:57;97323.41;;;16.72;75.13
55289;BME280;41154;45.394;5.734;2022-09-21T10:03:25;97321.78;;;16.71;74.72
55289;BME280;41154;45.394;5.734;2022-09-21T10:05:52;97318.28;;;16.65;74.13
55289;BME280;41154;45.394;5.734;2022-09-21T10:11:03;97328.03;;;17.06;71.39
55289;BME280;41154;45.394;5.734;2022-09-21T10:13:35;97329.06;;;16.31;77.93
55289;BME280;41154;45.394;5.734;2022-09-21T10:16:17;97322.22;;;16.88;79.69
55289;BME280;41154;45.394;5.734;2022-09-21T10:18:54;97329.16;;;17.34;72.44
55289;BME280;41154;45.394;5.734;2022-09-21T10:24:04;97323.75;;;17.00;72.17
55289;BME280;41154;45.394;5.734;2022-09-21T10:26:41;97318.53;;;16.69;75.78
55289;BME280;41154;45.394;5.734;2022-09-21T10:29:28;97318.97;;;16.86;72.17
55289;BME280;41154;45.394;5.734;2022-09-21T10:32:17;97321.84;;;16.61;76.13
55289;BME280;41154;45.394;5.734;2022-09-21T10:35:18;97315.09;;;16.98;79.36
55289;BME280;41154;45.394;5.734;2022-09-21T10:37:46;97322.59;;;17.06;76.90
55289;BME280;41154;45.394;5.734;2022-09-21T10:42:45;97316.91;;;17.07;78.66
55289;BME280;41154;45.394;5.734;2022-09-21T10:47:43;97316.75;;;16.94;76.54
55289;BME280;41154;45.394;5.734;2022-09-21T10:50:39;97321.72;;;17.16;79.85
55289;BME280;41154;45.394;5.734;2022-09-21T10:55:45;97317.16;;;17.11;76.43
55289;BME280;41154;45.394;5.734;2022-09-21T10:58:16;97319.81;;;17.46;80.73
55289;BME280;41154;45.394;5.734;2022-09-21T11:00:44;97323.97;;;17.38;74.36
55289;BME280;41154;45.394;5.734;2022-09-21T11:06:17;97324.75;;;17.38;74.66
55289;BME280;41154;45.394;5.734;2022-09-21T11:09:07;97315.75;;;17.19;77.64
55289;BME280;41154;45.394;5.734;2022-09-21T11:17:38;97325.31;;;16.66;77.72
55289;BME280;41154;45.394;5.734;2022-09-21T11:23:01;97320.66;;;16.77;75.95
55289;BME280;41154;45.394;5.734;2022-09-21T11:25:40;97317.66;;;16.34;80.81
55289;BME280;41154;45.394;5.734;2022-09-21T11:45:17;97322.16;;;16.54;79.11
55289;BME280;41154;45.394;5.734;2022-09-21T11:47:59;97314.72;;;16.70;78.12
55289;BME280;41154;45.394;5.734;2022-09-21T12:11:55;97308.69;;;16.83;80.28
55289;BME280;41154;45.394;5.734;2022-09-21T12:14:32;97310.66;;;16.28;79.13
55289;BME280;41154;45.394;5.734;2022-09-21T12:20:33;97309.91;;;16.62;80.17
55289;BME280;41154;45.394;5.734;2022-09-21T12:23:07;97307.16;;;16.67;79.26
55289;BME280;41154;45.394;5.734;2022-09-21T12:25:41;97310.56;;;16.43;77.86
55289;BME280;41154;45.394;5.734;2022-09-21T12:28:53;97317.63;;;16.44;78.36
55289;BME280;41154;45.394;5.734;2022-09-21T12:31:13;97316.69;;;16.64;77.07
55289;BME280;41154;45.394;5.734;2022-09-21T12:33:48;97305.75;;;17.14;82.06
55289;BME280;41154;45.394;5.734;2022-09-21T12:36:17;97319.44;;;17.28;79.10
55289;BME280;41154;45.394;5.734;2022-09-21T12:38:51;97310.50;;;17.28;78.66
55289;BME280;41154;45.394;5.734;2022-09-21T12:41:21;97311.66;;;16.82;77.58
55289;BME280;41154;45.394;5.734;2022-09-21T12:44:25;97311.69;;;17.16;75.80
55289;BME280;41154;45.394;5.734;2022-09-21T12:47:09;97312.06;;;17.34;75.54
55289;BME280;41154;45.394;5.734;2022-09-21T12:49:45;97308.16;;;17.45;75.80
55289;BME280;41154;45.394;5.734;2022-09-21T12:52:21;97312.13;;;17.29;79.20
55289;BME280;41154;45.394;5.734;2022-09-21T12:57:27;97299.53;;;16.74;76.73
55289;BME280;41154;45.394;5.734;2022-09-21T13:00:07;97303.53;;;16.87;79.90
55289;BME280;41154;45.394;5.734;2022-09-21T13:02:37;97300.28;;;16.85;76.09
55289;BME280;41154;45.394;5.734;2022-09-21T13:08:18;97314.97;;;17.42;76.62
55289;BME280;41154;45.394;5.734;2022-09-21T13:13:32;97304.50;;;17.31;78.04
55289;BME280;41154;45.394;5.734;2022-09-21T13:16:00;97309.41;;;17.29;77.36
55289;BME280;41154;45.394;5.734;2022-09-21T13:18:31;97307.34;;;17.15;77.50
55289;BME280;41154;45.394;5.734;2022-09-21T13:21:18;97317.38;;;17.44;78.14
55289;BME280;41154;45.394;5.734;2022-09-21T13:24:06;97304.31;;;17.22;76.58
55289;BME280;41154;45.394;5.734;2022-09-21T13:26:52;97307.47;;;17.05;78.95
55289;BME280;41154;45.394;5.734;2022-09-21T13:32:06;97311.13;;;17.19;77.78
55289;BME280;41154;45.394;5.734;2022-09-21T13:34:44;97297.97;;;17.02;79.57
55289;BME280;41154;45.394;5.734;2022-09-21T13:37:12;97300.28;;;17.19;80.02
55289;BME280;41154;45.394;5.734;2022-09-21T13:39:54;97295.94;;;17.18;78.49
55289;BME280;41154;45.394;5.734;2022-09-21T13:47:45;97305.13;;;17.22;78.59
55289;BME280;41154;45.394;5.734;2022-09-21T13:50:27;97296.63;;;17.58;75.87
55289;BME280;41154;45.394;5.734;2022-09-21T13:52:57;97294.06;;;17.43;75.83
55289;BME280;41154;45.394;5.734;2022-09-21T13:55:31;97294.84;;;17.19;77.96
55289;BME280;41154;45.394;5.734;2022-09-21T13:58:15;97293.44;;;17.51;76.89
55289;BME280;41154;45.394;5.734;2022-09-21T14:00:58;97295.78;;;17.34;78.67
55289;BME280;41154;45.394;5.734;2022-09-21T14:03:26;97296.53;;;17.69;77.62
55289;BME280;41154;45.394;5.734;2022-09-21T14:05:59;97292.84;;;17.54;77.23
55289;BME280;41154;45.394;5.734;2022-09-21T14:08:35;97285.94;;;17.43;78.54
55289;BME280;41154;45.394;5.734;2022-09-21T14:11:51;97283.22;;;17.19;77.63
55289;BME280;41154;45.394;5.734;2022-09-21T14:14:05;97283.22;;;17.43;78.53
55289;BME280;41154;45.394;5.734;2022-09-21T14:24:39;97286.66;;;17.24;79.17
55289;BME280;41154;45.394;5.734;2022-09-21T14:30:02;97274.53;;;17.17;77.88
55289;BME280;41154;45.394;5.734;2022-09-21T14:32:33;97275.97;;;17.63;76.28
55289;BME280;41154;45.394;5.734;2022-09-21T14:35:19;97277.94;;;17.33;77.71
55289;BME280;41154;45.394;5.734;2022-09-21T14:37:57;97271.81;;;17.46;78.47
55289;BME280;41154;45.394;5.734;2022-09-21T14:40:28;97276.59;;;17.54;76.49
55289;BME280;41154;45.394;5.734;2022-09-21T14:42:58;97269.50;;;17.58;77.69
55289;BME280;41154;45.394;5.734;2022-09-21T14:46:02;97268.56;;;17.68;75.89
55289;BME280;41154;45.394;5.734;2022-09-21T14:51:25;97269.13;;;17.65;75.90
55289;BME280;41154;45.394;5.734;2022-09-21T14:59:22;97269.50;;;17.58;76.26
55289;BME280;41154;45.394;5.734;2022-09-21T15:01:56;97266.44;;;17.41;74.80
55289;BME280;41154;45.394;5.734;2022-09-21T15:07:41;97271.16;;;17.78;74.82
55289;BME280;41154;45.394;5.734;2022-09-21T15:10:44;97265.22;;;17.52;76.28
55289;BME280;41154;45.394;5.734;2022-09-21T15:13:46;97267.94;;;17.52;76.74
55289;BME280;41154;45.394;5.734;2022-09-21T15:21:40;97266.03;;;17.53;76.11
55289;BME280;41154;45.394;5.734;2022-09-21T15:24:29;97263.38;;;17.48;75.57
55289;BME280;41154;45.394;5.734;2022-09-21T15:29:29;97272.03;;;17.25;75.82
55289;BME280;41154;45.394;5.734;2022-09-21T15:31:56;97276.66;;;17.25;77.59
55289;BME280;41154;45.394;5.734;2022-09-21T15:34:22;97263.81;;;17.31;76.84
55289;BME280;41154;45.394;5.734;2022-09-21T15:36:49;97263.72;;;17.41;76.64
55289;BME280;41154;45.394;5.734;2022-09-21T15:39:30;97276.28;;;17.32;75.54
55289;BME280;41154;45.394;5.734;2022-09-21T15:44:36;97273.38;;;17.23;77.29
55289;BME280;41154;45.394;5.734;2022-09-21T15:47:06;97271.34;;;17.63;75.99
55289;BME280;41154;45.394;5.734;2022-09-21T15:49:34;97280.91;;;17.31;75.82
55289;BME280;41154;45.394;5.734;2022-09-21T15:54:33;97271.66;;;17.32;76.21
55289;BME280;41154;45.394;5.734;2022-09-21T15:57:02;97267.38;;;17.31;75.57
55289;BME280;41154;45.394;5.734;2022-09-21T15:59:35;97274.03;;;17.39;75.32
55289;BME280;41154;45.394;5.734;2022-09-21T16:02:10;97275.50;;;17.31;75.96
55289;BME280;41154;45.394;5.734;2022-09-21T16:04:44;97287.78;;;17.23;75.86
55289;BME280;41154;45.394;5.734;2022-09-21T16:07:31;97281.06;;;17.16;76.47
55289;BME280;41154;45.394;5.734;2022-09-21T16:09:58;97290.44;;;17.29;77.24